Time;durP1;ratioP1;P1;durP2;ratioP2;P2;SDS_P1;SDS_P2;PMS_P1;PMS_P2;Temp;Humidity;BMP_temperature;BMP_pressure;BME280_temperature;BME280_humidity;BME280_pressure;Samples;Min_cycle;Max_cycle;Signal;HPM_P1;HPM_P2
2022/07/22 00:01:24;;;;;;;6.18;4.60;;;;;;;28.15;59.16;99664.84;4979947;28;20025;-74
2022/07/22 00:03:50;;;;;;;5.85;4.30;;;;;;;28.10;59.00;99669.09;4981387;28;20030;-74
2022/07/22 00:06:15;;;;;;;5.50;4.65;;;;;;;27.98;60.05;99665.69;4980726;28;20026;-74
2022/07/22 00:08:41;;;;;;;7.38;4.45;;;;;;;27.95;60.08;99665.38;4979507;28;20111;-74
2022/07/22 00:11:06;;;;;;;5.13;4.65;;;;;;;27.87;60.54;99663.09;4980448;28;20066;-74
2022/07/22 00:13:32;;;;;;;5.45;4.78;;;;;;;27.81;60.76;99659.53;4977733;28;20026;-73
2022/07/22 00:15:58;;;;;;;4.70;4.30;;;;;;;27.54;61.90;99661.34;4981300;28;20088;-74
2022/07/22 00:18:23;;;;;;;4.82;4.43;;;;;;;27.52;62.49;99666.19;4982738;28;20022;-73
2022/07/22 00:20:49;;;;;;;5.28;4.72;;;;;;;27.53;62.72;99662.41;4981244;28;20126;-74
2022/07/22 00:23:15;;;;;;;7.80;5.10;;;;;;;27.52;62.23;99671.59;4980786;28;20102;-73
2022/07/22 00:25:40;;;;;;;7.07;4.93;;;;;;;27.42;62.72;99666.03;4979686;28;20081;-73
2022/07/22 00:28:06;;;;;;;5.43;4.93;;;;;;;27.30;63.30;99658.81;4981354;28;20045;-75
2022/07/22 00:30:32;;;;;;;5.18;4.53;;;;;;;27.24;63.52;99667.94;4983930;28;20121;-73
2022/07/22 00:32:58;;;;;;;5.72;4.47;;;;;;;27.16;63.65;99668.34;4985093;28;20068;-73
2022/07/22 00:35:23;;;;;;;6.78;5.13;;;;;;;27.05;64.58;99671.97;4984533;28;20031;-74
2022/07/22 00:37:49;;;;;;;5.75;4.78;;;;;;;26.98;64.76;99665.91;4983964;28;20030;-73
2022/07/22 00:40:14;;;;;;;6.07;4.57;;;;;;;26.85;65.71;99671.63;4985018;28;20026;-73
2022/07/22 00:42:40;;;;;;;8.43;4.43;;;;;;;26.71;66.38;99670.28;4982324;28;20045;-74
2022/07/22 00:45:07;;;;;;;6.40;4.65;;;;;;;26.65;66.18;99671.28;4984738;28;20121;-76
2022/07/22 00:47:33;;;;;;;5.35;4.85;;;;;;;26.63;66.05;99668.81;4977807;28;20035;-75
2022/07/22 00:49:59;;;;;;;5.45;4.47;;;;;;;26.53;66.30;99663.22;4983972;28;20475;-75
2022/07/22 00:52:25;;;;;;;5.78;4.85;;;;;;;26.42;67.35;99667.63;4983445;28;20109;-75
2022/07/22 00:54:51;;;;;;;5.88;5.20;;;;;;;26.29;68.28;99662.53;4977944;28;20475;-75
2022/07/22 00:57:17;;;;;;;5.00;4.60;;;;;;;26.17;69.49;99659.00;4984102;28;20509;-75
2022/07/22 00:59:43;;;;;;;5.20;4.68;;;;;;;25.97;70.37;99669.44;4982057;28;20039;-74
2022/07/22 01:02:09;;;;;;;5.13;4.72;;;;;;;25.98;70.31;99665.66;4985665;28;20027;-75
2022/07/22 01:04:35;;;;;;;5.75;5.18;;;;;;;26.08;69.36;99672.13;4981742;28;20031;-74
2022/07/22 01:07:00;;;;;;;5.57;5.00;;;;;;;26.16;69.09;99668.19;4984068;28;20065;-75
2022/07/22 01:09:26;;;;;;;9.00;5.25;;;;;;;26.24;68.68;99662.44;4983086;28;20045;-75
2022/07/22 01:11:52;;;;;;;4.75;4.30;;;;;;;26.28;68.41;99660.88;4983490;28;20041;-74
2022/07/22 01:14:18;;;;;;;7.85;5.00;;;;;;;26.32;68.70;99667.47;4984000;28;20471;-75
2022/07/22 01:16:43;;;;;;;5.43;4.65;;;;;;;26.31;68.69;99660.41;4976647;28;20081;-75
2022/07/22 01:19:09;;;;;;;7.03;5.50;;;;;;;26.36;68.52;99662.38;4988483;28;20077;-75
2022/07/22 01:21:35;;;;;;;7.20;4.68;;;;;;;26.26;69.30;99668.44;4981334;28;20034;-76
2022/07/22 01:24:01;;;;;;;6.55;4.78;;;;;;;26.10;70.15;99661.03;4983871;28;20049;-75
2022/07/22 01:26:27;;;;;;;5.68;5.18;;;;;;;25.96;70.52;99667.81;4977226;28;20379;-75
2022/07/22 01:28:54;;;;;;;5.45;4.90;;;;;;;26.01;70.43;99674.13;4984484;28;20034;-75
2022/07/22 01:31:20;;;;;;;10.43;5.10;;;;;;;26.03;70.35;99676.59;4982109;28;20372;-75
2022/07/22 01:33:46;;;;;;;5.18;4.65;;;;;;;25.99;70.89;99678.94;4981712;28;20379;-75
2022/07/22 01:36:11;;;;;;;7.32;5.10;;;;;;;25.87;70.97;99675.44;4981275;28;20034;-75
2022/07/22 01:38:38;;;;;;;6.10;5.13;;;;;;;25.84;71.25;99675.13;4984048;28;20050;-75
2022/07/22 01:41:04;;;;;;;5.40;4.78;;;;;;;25.78;72.10;99676.06;4982776;28;20035;-75
2022/07/22 01:43:30;;;;;;;6.35;4.88;;;;;;;25.43;74.03;99674.22;4980136;28;20030;-74
2022/07/22 01:45:56;;;;;;;7.50;5.20;;;;;;;25.25;74.67;99677.03;4981329;28;20518;-73
2022/07/22 01:48:22;;;;;;;5.38;4.88;;;;;;;25.35;74.16;99674.56;4982502;28;20070;-76
2022/07/22 01:50:48;;;;;;;7.35;4.88;;;;;;;25.38;74.04;99674.09;4981481;28;20042;-75
2022/07/22 01:53:15;;;;;;;7.38;5.15;;;;;;;25.39;74.18;99677.63;4981544;28;20340;-75
2022/07/22 01:55:41;;;;;;;7.28;5.00;;;;;;;25.37;74.34;99675.16;4983698;28;20033;-75
2022/07/22 01:58:07;;;;;;;7.07;4.78;;;;;;;25.34;74.58;99681.03;4983445;28;20046;-75
2022/07/22 02:00:35;;;;;;;6.68;5.43;;;;;;;25.39;74.04;99683.03;4977053;28;20026;-75
2022/07/22 02:03:03;;;;;;;8.27;4.93;;;;;;;25.40;73.94;99677.38;4982081;28;20034;-76
2022/07/22 02:05:29;;;;;;;5.53;5.00;;;;;;;25.46;73.74;99678.31;4978237;28;20157;-75
2022/07/22 02:08:06;;;;;;;7.20;5.22;;;;;;;25.45;73.39;99674.78;4979849;28;20435;-75
2022/07/22 02:10:51;;;;;;;5.72;4.50;;;;;;;25.43;74.03;99674.22;4997569;28;20038;-75
2022/07/22 02:13:16;;;;;;;5.10;4.57;;;;;;;25.43;74.31;99673.41;4980899;28;20030;-73
2022/07/22 02:15:42;;;;;;;6.30;5.03;;;;;;;25.46;74.42;99668.31;4981065;28;20429;-73
2022/07/22 02:18:17;;;;;;;5.57;5.07;;;;;;;25.48;74.53;99665.41;4984517;28;20027;-73
2022/07/22 02:20:44;;;;;;;6.50;4.55;;;;;;;25.51;74.11;99670.31;4981234;28;20450;-74
2022/07/22 02:23:13;;;;;;;5.32;4.80;;;;;;;25.52;74.62;99666.56;4981986;28;20035;-73
2022/07/22 02:25:40;;;;;;;5.75;5.18;;;;;;;25.50;74.95;99663.28;4978524;28;20038;-74
2022/07/22 02:28:05;;;;;;;5.70;5.13;;;;;;;25.47;75.25;99669.97;4983567;28;20034;-73
2022/07/22 02:30:32;;;;;;;5.85;5.10;;;;;;;25.50;75.10;99664.13;4982857;28;20034;-74
2022/07/22 02:32:58;;;;;;;5.82;5.30;;;;;;;25.50;75.11;99664.13;4983040;28;20043;-74
2022/07/22 02:35:24;;;;;;;5.88;5.32;;;;;;;25.56;75.46;99674.00;4980596;28;20044;-74
2022/07/22 02:37:50;;;;;;;5.47;4.90;;;;;;;25.61;75.28;99671.41;4984708;28;20470;-73
2022/07/22 02:40:16;;;;;;;8.95;5.43;;;;;;;25.57;75.40;99670.22;5000930;28;20058;-74
2022/07/22 02:42:42;;;;;;;5.57;5.07;;;;;;;25.52;75.70;99661.97;4978443;28;20506;-73
2022/07/22 02:45:08;;;;;;;5.82;5.20;;;;;;;25.18;77.39;99660.13;4982807;28;20046;-74
2022/07/22 02:47:34;;;;;;;6.05;5.45;;;;;;;24.76;80.18;99667.44;4980127;28;20027;-74
2022/07/22 02:50:01;;;;;;;5.95;5.38;;;;;;;24.57;81.12;99663.16;4982014;28;20312;-74
2022/07/22 02:52:27;;;;;;;7.22;5.80;;;;;;;24.51;81.75;99664.91;4979417;28;20034;-73
2022/07/22 02:54:53;;;;;;;9.32;5.78;;;;;;;24.56;81.61;99662.38;4982951;28;20481;-77
2022/07/22 02:57:18;;;;;;;5.65;5.22;;;;;;;24.65;81.26;99666.38;4981208;28;20038;-75
2022/07/22 02:59:45;;;;;;;5.90;5.40;;;;;;;24.63;80.89;99660.38;4981903;28;20118;-74
2022/07/22 03:02:12;;;;;;;7.15;5.82;;;;;;;24.49;81.16;99656.25;4978991;28;20347;-76
2022/07/22 03:04:38;;;;;;;5.88;5.38;;;;;;;24.52;81.04;99658.47;4979633;28;20126;-74
2022/07/22 03:07:04;;;;;;;8.00;6.57;;;;;;;24.53;81.69;99665.53;4980744;28;20050;-74
2022/07/22 03:09:30;;;;;;;7.18;6.40;;;;;;;24.35;83.33;99677.19;4963943;28;20026;-74
2022/07/22 03:11:56;;;;;;;7.15;6.20;;;;;;;24.32;83.68;99676.84;4983137;28;20038;-74
2022/07/22 03:14:22;;;;;;;6.60;5.93;;;;;;;24.35;83.26;99676.38;4982379;28;20027;-74
2022/07/22 03:16:47;;;;;;;6.57;6.07;;;;;;;24.23;84.17;99673.63;4981170;28;20383;-74
2022/07/22 03:19:13;;;;;;;7.22;6.10;;;;;;;24.35;83.55;99673.66;4981865;28;20022;-75
2022/07/22 03:21:39;;;;;;;6.90;6.13;;;;;;;24.46;83.39;99671.00;4975402;28;20050;-74
2022/07/22 03:24:06;;;;;;;6.82;5.82;;;;;;;24.58;82.59;99684.53;4981651;28;20085;-74
2022/07/22 03:26:32;;;;;;;6.38;5.88;;;;;;;24.69;81.91;99678.34;4981099;28;20042;-74
2022/07/22 03:28:58;;;;;;;7.88;6.20;;;;;;;24.80;81.59;99676.72;4982982;28;20235;-73
2022/07/22 03:31:24;;;;;;;7.78;6.25;;;;;;;24.83;80.88;99678.97;4982159;28;20034;-73
2022/07/22 03:33:50;;;;;;;6.78;5.97;;;;;;;24.88;80.44;99682.66;4981142;28;20039;-74
2022/07/22 03:36:16;;;;;;;6.75;6.13;;;;;;;24.84;80.88;99686.84;4978996;28;20026;-73
2022/07/22 03:38:44;;;;;;;7.05;6.40;;;;;;;24.72;81.71;99683.28;4981887;28;20049;-74
2022/07/22 03:41:09;;;;;;;8.45;5.45;;;;;;;24.69;82.20;99691.84;4978210;28;20026;-73
2022/07/22 03:43:35;;;;;;;8.25;5.80;;;;;;;24.62;82.93;99699.22;4979135;28;20084;-74
2022/07/22 03:46:02;;;;;;;6.78;5.88;;;;;;;24.63;82.60;99703.53;4980819;28;20038;-75
2022/07/22 03:48:28;;;;;;;6.68;6.07;;;;;;;24.57;82.44;99693.66;4979704;28;20034;-74
2022/07/22 03:50:54;;;;;;;6.97;6.30;;;;;;;24.55;82.31;99697.66;4980450;28;20066;-73
2022/07/22 03:53:20;;;;;;;7.20;6.10;;;;;;;24.55;82.41;99703.91;4979971;28;20029;-73
2022/07/22 03:55:46;;;;;;;7.30;6.60;;;;;;;24.56;82.39;99705.53;4980118;28;20038;-75
2022/07/22 03:58:12;;;;;;;6.63;5.90;;;;;;;24.59;82.10;99710.47;4981686;28;20124;-74
2022/07/22 04:00:38;;;;;;;7.28;6.00;;;;;;;24.60;82.09;99706.72;4980883;28;20061;-73
2022/07/22 04:03:05;;;;;;;7.00;6.30;;;;;;;24.54;82.38;99707.63;4982563;28;20045;-73
2022/07/22 04:05:46;;;;;;;7.60;6.55;;;;;;;24.57;82.10;99709.84;4983796;28;20046;-74
2022/07/22 04:08:16;;;;;;;6.90;6.07;;;;;;;24.60;82.52;99716.69;4996737;28;20031;-74
2022/07/22 04:10:42;;;;;;;9.73;5.50;;;;;;;24.59;82.82;99705.06;4986731;28;20430;-74
2022/07/22 04:13:07;;;;;;;9.63;6.13;;;;;;;24.56;82.83;99710.94;4981857;28;20445;-74
2022/07/22 04:15:43;;;;;;;8.55;6.35;;;;;;;24.63;82.58;99705.41;4972624;28;20054;-73
2022/07/22 04:18:09;;;;;;;6.60;6.03;;;;;;;24.62;82.79;99714.59;4982630;28;20030;-74
2022/07/22 04:20:35;;;;;;;6.65;5.95;;;;;;;24.61;83.11;99718.34;4984283;28;20037;-73
2022/07/22 04:23:19;;;;;;;7.75;5.95;;;;;;;24.58;82.97;99716.91;4982780;28;20085;-74
2022/07/22 04:25:45;;;;;;;8.57;6.50;;;;;;;24.17;85.29;99723.03;4982486;28;20070;-74
2022/07/22 04:28:11;;;;;;;6.88;6.22;;;;;;;24.13;86.13;99726.41;4984347;28;20046;-74
2022/07/22 04:30:38;;;;;;;7.88;6.15;;;;;;;24.09;86.14;99721.47;4983088;28;20034;-73
2022/07/22 04:33:05;;;;;;;7.20;6.50;;;;;;;24.01;86.51;99719.09;4985192;28;20046;-73
2022/07/22 04:35:31;;;;;;;8.88;6.32;;;;;;;23.90;87.20;99727.94;4980772;28;20451;-74
2022/07/22 04:38:11;;;;;;;7.43;6.67;;;;;;;23.74;88.29;99723.13;4977680;28;20414;-74
2022/07/22 04:40:38;;;;;;;7.40;6.70;;;;;;;23.77;88.07;99732.63;4982919;28;20535;-74
2022/07/22 04:43:04;;;;;;;13.05;6.57;;;;;;;23.85;87.25;99733.19;4984587;28;20030;-73
2022/07/22 04:45:29;;;;;;;9.73;6.55;;;;;;;23.76;87.70;99730.97;4985781;28;20461;-74
2022/07/22 04:47:55;;;;;;;7.65;6.93;;;;;;;23.55;88.87;99734.94;4999203;28;20431;-74
2022/07/22 04:50:21;;;;;;;6.57;5.88;;;;;;;23.70;88.10;99739.97;4982973;28;20490;-73
2022/07/22 04:52:52;;;;;;;8.30;6.65;;;;;;;23.83;86.83;99737.97;4983994;28;20376;-74
2022/07/22 04:55:18;;;;;;;7.90;6.05;;;;;;;23.86;86.44;99732.09;4982358;28;20406;-74
2022/07/22 04:57:43;;;;;;;6.70;5.95;;;;;;;23.72;87.60;99727.94;4982919;28;20137;-74
2022/07/22 05:00:09;;;;;;;5.93;5.53;;;;;;;23.86;86.60;99731.28;4982264;28;20042;-75
2022/07/22 05:02:45;;;;;;;6.82;6.13;;;;;;;24.02;85.99;99734.22;4985201;28;20038;-74
2022/07/22 05:05:10;;;;;;;6.88;5.95;;;;;;;24.00;85.79;99739.00;4984155;28;20424;-73
2022/07/22 05:07:36;;;;;;;6.45;5.75;;;;;;;24.09;85.58;99729.56;4981957;28;20031;-73
2022/07/22 05:10:02;;;;;;;6.40;5.82;;;;;;;24.23;85.07;99726.72;5002711;28;20031;-74
2022/07/22 05:12:28;;;;;;;6.53;6.03;;;;;;;24.27;84.57;99733.34;4999110;28;20163;-74
2022/07/22 05:14:54;;;;;;;10.13;5.93;;;;;;;24.17;85.16;99730.28;4981325;28;20480;-73
2022/07/22 05:17:19;;;;;;;7.28;6.03;;;;;;;23.96;86.51;99732.44;4982468;28;20035;-73
2022/07/22 05:20:07;;;;;;;8.45;6.32;;;;;;;24.03;86.28;99732.34;4984387;28;20310;-74
2022/07/22 05:22:33;;;;;;;8.05;6.25;;;;;;;24.09;86.04;99737.63;4982537;28;20030;-74
2022/07/22 05:25:02;;;;;;;7.03;6.35;;;;;;;24.05;86.35;99736.44;4981601;28;20035;-73
2022/07/22 05:27:28;;;;;;;6.93;6.32;;;;;;;24.23;85.71;99732.13;4984207;28;20045;-73
2022/07/22 05:29:54;;;;;;;6.93;6.10;;;;;;;24.45;84.78;99735.97;4981991;28;20046;-74
2022/07/22 05:32:19;;;;;;;8.82;6.50;;;;;;;24.66;83.34;99737.34;4983698;28;20072;-75
2022/07/22 05:34:46;;;;;;;7.47;6.82;;;;;;;24.38;84.81;99741.47;4979656;28;20122;-74
2022/07/22 05:37:12;;;;;;;7.18;6.57;;;;;;;24.45;84.69;99735.97;4984548;28;20048;-73
2022/07/22 05:39:38;;;;;;;8.32;6.40;;;;;;;24.59;84.68;99737.44;4997571;28;20544;-74
2022/07/22 05:42:04;;;;;;;9.73;6.35;;;;;;;24.51;85.88;99734.22;4984453;28;20026;-74
2022/07/22 05:44:29;;;;;;;7.85;7.07;;;;;;;24.56;85.53;99734.41;4980502;28;20042;-75
2022/07/22 05:46:55;;;;;;;7.78;6.93;;;;;;;24.76;85.20;99743.84;4983846;28;20034;-74
2022/07/22 05:49:21;;;;;;;7.60;7.00;;;;;;;24.92;84.58;99742.38;4981096;28;20026;-74
2022/07/22 05:52:00;;;;;;;11.13;7.00;;;;;;;25.09;83.60;99739.84;4983171;28;20553;-74
2022/07/22 05:54:26;;;;;;;9.38;7.47;;;;;;;25.23;82.63;99749.38;4979154;28;20022;-75
2022/07/22 05:56:51;;;;;;;7.63;6.93;;;;;;;25.35;82.25;99747.50;4981549;28;20077;-75
2022/07/22 05:59:17;;;;;;;8.55;7.65;;;;;;;25.41;81.69;99743.03;4981615;28;20147;-73
2022/07/22 06:01:42;;;;;;;10.57;8.27;;;;;;;25.45;80.69;99747.72;4980775;28;20042;-74
2022/07/22 06:04:28;;;;;;;9.25;7.80;;;;;;;25.57;80.11;99745.88;4981176;28;20046;-74
2022/07/22 06:06:54;;;;;;;8.57;7.18;;;;;;;25.69;79.68;99754.81;4998198;28;20045;-74
2022/07/22 06:09:20;;;;;;;10.40;7.22;;;;;;;25.77;78.83;99747.41;4982320;28;20049;-75
2022/07/22 06:11:46;;;;;;;9.00;7.57;;;;;;;25.86;79.01;99762.22;4979379;28;20030;-75
2022/07/22 06:14:13;;;;;;;9.20;6.57;;;;;;;25.92;78.92;99763.97;4981670;28;20030;-77
2022/07/22 06:16:39;;;;;;;7.93;7.18;;;;;;;26.00;79.36;99760.88;4992735;28;20126;-77
2022/07/22 06:19:05;;;;;;;7.85;7.07;;;;;;;26.01;79.05;99766.06;4986794;28;20109;-77
2022/07/22 06:21:31;;;;;;;8.68;7.85;;;;;;;26.01;78.85;99773.34;4979244;28;20027;-77
2022/07/22 06:23:57;;;;;;;7.85;7.18;;;;;;;26.05;79.13;99774.50;4981603;28;20042;-78
2022/07/22 06:26:23;;;;;;;9.23;7.22;;;;;;;26.07;77.64;99769.69;4979318;28;20039;-77
2022/07/22 06:28:48;;;;;;;8.68;7.20;;;;;;;26.09;78.07;99771.09;4982290;28;20042;-76
2022/07/22 06:31:14;;;;;;;7.32;6.72;;;;;;;26.14;78.39;99774.97;4979118;28;20038;-77
2022/07/22 06:33:40;;;;;;;7.88;7.03;;;;;;;26.22;78.25;99775.41;4980240;28;20030;-77
2022/07/22 06:36:06;;;;;;;8.73;6.90;;;;;;;26.18;78.85;99779.66;4980651;28;20030;-75
2022/07/22 06:38:31;;;;;;;9.50;7.43;;;;;;;26.22;79.06;99780.00;4982032;28;20486;-79
2022/07/22 06:41:19;;;;;;;8.15;7.35;;;;;;;26.28;78.86;99777.19;4975787;28;20037;-75
2022/07/22 06:44:05;;;;;;;8.20;7.20;;;;;;;26.36;79.24;99779.53;4966933;28;20117;-74
2022/07/22 06:46:49;;;;;;;8.35;7.43;;;;;;;26.37;78.73;99778.47;4969414;28;20053;-74
2022/07/22 06:49:17;;;;;;;7.78;7.13;;;;;;;26.32;78.15;99772.97;4994051;28;20073;-75
2022/07/22 06:51:43;;;;;;;11.82;7.82;;;;;;;26.38;78.07;99777.41;4970744;28;20039;-76
2022/07/22 06:54:09;;;;;;;8.57;6.35;;;;;;;26.49;77.56;99781.16;4970531;28;20043;-74
2022/07/22 06:56:34;;;;;;;8.93;6.22;;;;;;;26.61;76.92;99781.94;4969138;28;20023;-75
2022/07/22 06:59:00;;;;;;;11.07;6.72;;;;;;;26.65;76.15;99787.66;4975604;28;20036;-77
2022/07/22 07:01:26;;;;;;;9.93;5.97;;;;;;;26.75;75.28;99774.31;4958440;28;20051;-77
2022/07/22 07:03:53;;;;;;;10.05;5.55;;;;;;;26.87;74.21;99777.78;4991520;28;20102;-76
2022/07/22 07:06:20;;;;;;;8.05;5.97;;;;;;;27.03;73.59;99777.03;4982290;28;20038;-75
2022/07/22 07:09:06;;;;;;;8.15;6.40;;;;;;;27.20;72.50;99777.88;4957380;28;20049;-75
2022/07/22 07:11:34;;;;;;;8.38;5.82;;;;;;;27.34;71.39;99782.94;4976023;28;20053;-78
2022/07/22 07:14:03;;;;;;;7.90;6.00;;;;;;;27.40;71.09;99781.97;4970844;28;20141;-74
2022/07/22 07:16:30;;;;;;;7.00;5.60;;;;;;;27.47;70.99;99788.03;4975525;28;20530;-76
2022/07/22 07:18:55;;;;;;;6.63;5.82;;;;;;;27.52;70.40;99791.69;4981947;28;20038;-75
2022/07/22 07:21:31;;;;;;;9.38;6.35;;;;;;;27.52;70.26;99791.69;4965331;28;20023;-75
2022/07/22 07:23:58;;;;;;;9.23;6.25;;;;;;;27.56;70.22;99792.03;4964087;28;20039;-76
2022/07/22 07:26:27;;;;;;;8.02;5.63;;;;;;;27.64;70.28;99788.88;4968018;28;20084;-78
2022/07/22 07:28:53;;;;;;;6.43;5.72;;;;;;;27.74;70.15;99783.63;4955992;28;20058;-73
2022/07/22 07:31:33;;;;;;;6.20;5.55;;;;;;;27.87;69.37;99788.69;4966142;28;20486;-77
2022/07/22 07:34:02;;;;;;;9.10;6.15;;;;;;;27.97;69.67;99788.84;4990312;28;20073;-74
2022/07/22 07:36:28;;;;;;;6.85;6.25;;;;;;;28.07;69.30;99794.41;4976262;28;20090;-75
2022/07/22 07:38:54;;;;;;;7.80;6.30;;;;;;;28.08;69.17;99796.03;4970889;28;20026;-73
2022/07/22 07:41:21;;;;;;;6.53;5.82;;;;;;;28.13;69.37;99794.47;4970793;28;20050;-76
2022/07/22 07:43:50;;;;;;;8.37;6.10;;;;;;;28.17;68.69;99792.91;4974567;28;20546;-75
2022/07/22 07:46:15;;;;;;;9.50;6.65;;;;;;;28.24;68.51;99793.53;4981409;28;20282;-77
2022/07/22 07:48:41;;;;;;;7.65;6.45;;;;;;;28.31;68.67;99795.00;4971823;28;20078;-77
2022/07/22 07:51:07;;;;;;;8.18;6.55;;;;;;;28.32;67.23;99798.53;4967883;28;20114;-74
2022/07/22 07:53:33;;;;;;;6.85;5.63;;;;;;;28.34;66.98;99796.38;4983553;28;20042;-75
2022/07/22 07:55:59;;;;;;;6.88;6.10;;;;;;;28.41;67.68;99794.31;4981140;28;20388;-74
2022/07/22 07:58:24;;;;;;;12.40;6.68;;;;;;;28.48;67.68;99794.94;4980354;28;20032;-73
2022/07/22 08:00:51;;;;;;;7.90;6.30;;;;;;;28.53;66.81;99797.69;4981074;28;20038;-75
2022/07/22 08:03:18;;;;;;;9.68;6.53;;;;;;;28.63;67.03;99797.81;4979580;28;20166;-76
2022/07/22 08:05:44;;;;;;;7.10;6.40;;;;;;;28.72;66.88;99800.91;4979103;28;20534;-76
2022/07/22 08:08:19;;;;;;;8.93;6.70;;;;;;;28.80;66.36;99792.34;4961896;28;20113;-76
2022/07/22 08:10:49;;;;;;;7.95;7.07;;;;;;;28.79;66.15;99802.38;4978136;28;20034;-78
2022/07/22 08:13:31;;;;;;;7.35;6.50;;;;;;;28.80;65.91;99798.59;4979842;28;20045;-75
2022/07/22 08:16:19;;;;;;;7.95;7.00;;;;;;;28.79;65.67;99791.53;4980169;28;20129;-76
2022/07/22 08:18:45;;;;;;;11.88;6.95;;;;;;;28.85;65.52;99795.94;4979143;28;20038;-75
2022/07/22 08:21:12;;;;;;;9.07;6.25;;;;;;;28.93;65.33;99797.34;4980917;28;20038;-76
2022/07/22 08:23:58;;;;;;;9.65;6.70;;;;;;;29.03;65.08;99791.22;4982571;28;20498;-76
2022/07/22 08:26:24;;;;;;;11.68;6.78;;;;;;;29.12;64.59;99795.91;4977074;28;20038;-75
2022/07/22 08:28:53;;;;;;;9.65;6.80;;;;;;;29.17;62.74;99792.41;4980498;28;20030;-75
2022/07/22 08:31:19;;;;;;;8.20;6.88;;;;;;;29.19;62.15;99790.25;4976606;28;20051;-77
2022/07/22 08:33:47;;;;;;;6.82;6.05;;;;;;;29.23;62.27;99791.38;4972678;28;20562;-76
2022/07/22 08:36:13;;;;;;;7.43;6.40;;;;;;;29.34;62.04;99792.31;4968879;28;20051;-75
2022/07/22 08:38:39;;;;;;;8.82;7.78;;;;;;;29.34;61.98;99793.13;4979991;28;20042;-76
2022/07/22 08:41:09;;;;;;;8.00;7.18;;;;;;;29.45;61.90;99794.88;4980378;28;20034;-76
2022/07/22 08:43:39;;;;;;;9.43;6.43;;;;;;;29.53;62.43;99786.22;4976235;28;20046;-76
2022/07/22 08:46:05;;;;;;;6.88;6.28;;;;;;;29.61;62.00;99788.47;4978923;28;20026;-77
2022/07/22 08:48:50;;;;;;;10.27;6.75;;;;;;;29.78;60.64;99784.75;4993200;28;20035;-76
2022/07/22 08:51:34;;;;;;;10.40;6.55;;;;;;;29.87;60.62;99785.88;4971740;28;20030;-75
2022/07/22 08:54:21;;;;;;;8.57;7.03;;;;;;;29.85;61.16;99790.78;4980095;28;20042;-78
2022/07/22 08:56:52;;;;;;;8.88;6.57;;;;;;;29.88;61.34;99792.97;4982457;28;20050;-79
2022/07/22 08:59:20;;;;;;;12.32;7.22;;;;;;;29.91;61.35;99787.03;4976819;28;20047;-78
2022/07/22 09:02:06;;;;;;;7.20;6.45;;;;;;;29.94;60.55;99791.94;4980693;28;20035;-78
2022/07/22 09:04:50;;;;;;;8.90;6.82;;;;;;;30.07;59.51;99788.75;4987211;28;20039;-77
2022/07/22 09:07:26;;;;;;;12.38;7.15;;;;;;;30.12;59.10;99788.78;4983590;28;20045;-76
2022/07/22 09:09:54;;;;;;;9.43;7.15;;;;;;;30.21;58.95;99784.47;4984302;28;20043;-78
2022/07/22 09:12:57;;;;;;;12.60;7.47;;;;;;;30.39;58.33;99784.00;4976655;28;20057;-78
2022/07/22 09:15:54;;;;;;;9.23;7.63;;;;;;;30.49;59.54;99784.06;4958458;28;20061;-77
2022/07/22 09:18:45;;;;;;;14.35;7.47;;;;;;;30.61;59.98;99788.47;4961302;28;20136;-77
2022/07/22 09:21:29;;;;;;;8.15;6.85;;;;;;;30.69;59.81;99782.50;4972471;28;20431;-75
2022/07/22 09:24:30;;;;;;;13.02;7.53;;;;;;;30.66;58.33;99783.03;4972536;28;20041;-73
2022/07/22 09:27:28;;;;;;;12.65;7.43;;;;;;;30.70;58.20;99781.38;4966016;28;20055;-73
2022/07/22 09:30:15;;;;;;;8.90;6.25;;;;;;;30.72;55.63;99780.03;4976881;28;20090;-74
2022/07/22 09:32:49;;;;;;;7.93;7.30;;;;;;;30.70;56.98;99784.94;4976706;28;20042;-72
2022/07/22 09:35:34;;;;;;;9.65;7.38;;;;;;;30.84;56.18;99785.25;4973938;28;20459;-73
2022/07/22 09:38:03;;;;;;;9.35;7.40;;;;;;;31.13;53.95;99777.41;4960567;28;20053;-72
2022/07/22 09:40:31;;;;;;;8.47;7.20;;;;;;;31.31;52.95;99771.41;4980931;28;20038;-71
2022/07/22 09:43:00;;;;;;;13.63;7.40;;;;;;;31.38;53.56;99777.41;4980651;28;20281;-73
2022/07/22 09:45:28;;;;;;;8.98;6.25;;;;;;;31.49;51.95;99773.56;4983956;28;20395;-72
2022/07/22 09:47:56;;;;;;;8.35;6.30;;;;;;;31.47;50.99;99767.56;4980871;28;20031;-73
2022/07/22 09:50:57;;;;;;;7.18;6.57;;;;;;;31.51;50.83;99767.84;4944458;28;20042;-73
2022/07/22 09:53:33;;;;;;;10.77;7.78;;;;;;;31.52;52.48;99761.28;4972245;28;20133;-74
2022/07/22 09:56:06;;;;;;;12.05;7.38;;;;;;;31.56;51.75;99760.47;4974372;28;20038;-73
2022/07/22 09:58:33;;;;;;;8.98;5.78;;;;;;;31.76;48.14;99751.44;4967597;28;20045;-74
2022/07/22 10:01:03;;;;;;;9.50;5.63;;;;;;;31.92;44.85;99752.25;4975511;28;20403;-74
2022/07/22 10:03:33;;;;;;;6.95;4.88;;;;;;;32.03;43.83;99749.19;4987185;28;20050;-76
2022/07/22 10:06:01;;;;;;;6.88;6.00;;;;;;;32.03;43.73;99754.66;4982146;28;20038;-75
2022/07/22 10:08:29;;;;;;;9.35;5.30;;;;;;;32.00;43.53;99749.75;4976392;28;20395;-76
2022/07/22 10:11:03;;;;;;;7.28;5.70;;;;;;;32.11;41.60;99745.88;4981002;28;20026;-74
2022/07/22 10:13:29;;;;;;;5.50;5.00;;;;;;;32.30;40.09;99745.28;4982007;28;20046;-75
2022/07/22 10:15:57;;;;;;;6.15;5.65;;;;;;;32.49;40.00;99740.81;4982515;28;20035;-74
2022/07/22 10:18:25;;;;;;;10.88;6.32;;;;;;;32.51;40.02;99738.63;4978788;28;20034;-76
2022/07/22 10:21:07;;;;;;;5.97;5.38;;;;;;;32.66;39.03;99727.63;4998327;28;20026;-75
2022/07/22 10:23:33;;;;;;;9.68;5.63;;;;;;;32.88;38.62;99729.91;4983130;28;20378;-75
2022/07/22 10:26:02;;;;;;;8.30;5.30;;;;;;;32.85;38.84;99734.06;4982405;28;20546;-75
2022/07/22 10:28:34;;;;;;;7.55;5.22;;;;;;;32.86;39.14;99724.75;4995079;28;20111;-76
2022/07/22 10:31:32;;;;;;;6.50;5.13;;;;;;;32.77;39.53;99720.97;4983174;28;20038;-76
2022/07/22 10:33:59;;;;;;;5.55;5.05;;;;;;;32.67;39.36;99715.59;4948172;28;20391;-76
2022/07/22 10:36:37;;;;;;;7.25;5.45;;;;;;;32.62;39.07;99715.59;4983044;28;20027;-76
2022/07/22 10:39:03;;;;;;;9.43;5.65;;;;;;;32.57;39.68;99710.19;4980124;28;20035;-75
2022/07/22 10:41:40;;;;;;;5.88;5.38;;;;;;;32.72;39.57;99707.34;4286506;28;10000774;-75
2022/07/22 10:44:07;;;;;;;8.07;5.50;;;;;;;32.96;38.75;99701.16;4979588;28;20380;-75
2022/07/22 10:46:53;;;;;;;7.40;4.80;;;;;;;33.30;36.52;99708.25;4980123;28;20422;-73
2022/07/22 10:49:21;;;;;;;8.57;5.00;;;;;;;33.39;36.51;99700.25;4976087;28;20046;-73
2022/07/22 10:52:16;;;;;;;7.63;5.50;;;;;;;33.53;36.50;99701.19;4978212;28;20038;-75
2022/07/22 10:55:20;;;;;;;7.70;5.00;;;;;;;33.67;37.84;99704.88;4962282;28;20666;-71
2022/07/22 10:57:46;;;;;;;7.47;5.75;;;;;;;33.77;37.69;99703.16;4973578;28;20451;-73
2022/07/22 11:00:12;;;;;;;9.13;5.57;;;;;;;33.80;37.73;99699.84;4971525;28;20042;-71
2022/07/22 11:02:38;;;;;;;9.00;6.13;;;;;;;33.81;37.51;99696.00;4975405;28;20387;-72
2022/07/22 11:05:05;;;;;;;12.70;5.72;;;;;;;33.77;37.32;99694.94;4970101;28;20125;-72
2022/07/22 11:07:34;;;;;;;10.40;5.78;;;;;;;33.70;37.47;99701.56;4974817;28;20390;-72
2022/07/22 11:10:12;;;;;;;6.32;5.75;;;;;;;33.70;37.55;99696.09;4981323;28;20129;-72
2022/07/22 11:12:38;;;;;;;5.85;5.25;;;;;;;33.72;37.33;99688.41;4978145;28;20735;-72
2022/07/22 11:15:06;;;;;;;6.00;5.20;;;;;;;33.92;36.94;99692.03;4974644;28;20420;-71
2022/07/22 11:17:34;;;;;;;8.65;5.97;;;;;;;33.98;36.56;99685.38;4979301;28;20035;-72
2022/07/22 11:20:01;;;;;;;6.32;5.18;;;;;;;34.01;36.80;99684.78;4981643;28;20031;-73
2022/07/22 11:22:27;;;;;;;6.43;5.28;;;;;;;34.01;35.55;99684.78;4974121;28;20089;-72
2022/07/22 11:24:52;;;;;;;5.82;4.72;;;;;;;33.94;36.16;99667.88;4976676;28;20046;-73
2022/07/22 11:27:22;;;;;;;7.97;5.57;;;;;;;33.86;36.55;99672.13;4978402;28;20031;-73
2022/07/22 11:29:50;;;;;;;6.13;4.65;;;;;;;33.83;36.29;99666.41;4953473;28;20038;-72
2022/07/22 11:32:16;;;;;;;10.05;5.20;;;;;;;34.04;35.38;99673.25;4975029;28;20031;-73
2022/07/22 11:34:47;;;;;;;6.03;5.50;;;;;;;34.18;35.68;99667.84;4977105;28;20035;-72
2022/07/22 11:37:17;;;;;;;6.32;5.18;;;;;;;34.35;35.13;99658.03;4632393;28;10000991;-71
2022/07/22 11:39:43;;;;;;;5.45;4.93;;;;;;;34.44;34.94;99667.22;4976090;28;20042;-73
2022/07/22 11:42:09;;;;;;;7.32;5.40;;;;;;;34.40;35.60;99654.44;4980756;28;20054;-74